Time;durP1;ratioP1;P1;durP2;ratioP2;P2;SDS_P1;SDS_P2;PMS_P1;PMS_P2;Temp;Humidity;BMP_temperature;BMP_pressure;BME280_temperature;BME280_humidity;BME280_pressure;Samples;Min_cycle;Max_cycle;Signal;HPM_P1;HPM_P2
2022/04/29 00:00:25;;;;;;;2.73;2.47;;;9.50;99.90;;;;;;5093605;28;20517;-48
2022/04/29 00:02:53;;;;;;;3.20;2.93;;;9.40;99.90;;;;;;5092786;28;20475;-45
2022/04/29 00:05:20;;;;;;;4.03;2.83;;;9.50;99.90;;;;;;5093773;28;20451;-46
2022/04/29 00:07:47;;;;;;;3.57;2.70;;;9.40;99.90;;;;;;5093252;28;20461;-49
2022/04/29 00:10:16;;;;;;;2.97;2.67;;;9.10;99.90;;;;;;5093478;28;20468;-46
2022/04/29 00:12:46;;;;;;;3.27;2.97;;;9.10;99.90;;;;;;5093109;28;20956;-46
2022/04/29 00:15:16;;;;;;;3.40;2.60;;;9.20;99.90;;;;;;5093641;28;20945;-46
2022/04/29 00:17:44;;;;;;;3.30;3.07;;;9.20;99.90;;;;;;5093586;28;20490;-46
2022/04/29 00:20:12;;;;;;;3.47;3.17;;;9.30;99.90;;;;;;5093370;28;20889;-46
2022/04/29 00:22:39;;;;;;;3.60;3.07;;;9.30;99.90;;;;;;5092671;28;20470;-46
2022/04/29 00:25:07;;;;;;;3.77;2.80;;;9.20;99.90;;;;;;5093294;28;20482;-45
2022/04/29 00:27:35;;;;;;;4.20;2.90;;;9.20;99.90;;;;;;5093427;28;20936;-46
2022/04/29 00:30:02;;;;;;;3.30;2.27;;;9.30;99.90;;;;;;5093515;28;20471;-45
2022/04/29 00:32:30;;;;;;;2.97;2.70;;;9.20;99.90;;;;;;5093438;28;20500;-46
2022/04/29 00:34:57;;;;;;;2.83;2.47;;;9.20;99.90;;;;;;5093730;28;20476;-46
2022/04/29 00:37:24;;;;;;;3.03;2.73;;;9.20;99.90;;;;;;5094018;28;20475;-46
2022/04/29 00:39:51;;;;;;;3.10;2.70;;;9.30;99.90;;;;;;5093571;28;20482;-46
2022/04/29 00:42:21;;;;;;;3.17;2.83;;;9.30;99.90;;;;;;5092952;28;20478;-50
2022/04/29 00:44:49;;;;;;;3.53;3.00;;;9.30;99.90;;;;;;5093346;28;20458;-48
2022/04/29 00:47:17;;;;;;;4.13;2.93;;;9.30;99.90;;;;;;5093712;28;20484;-46
2022/04/29 00:49:46;;;;;;;3.43;3.20;;;9.30;99.90;;;;;;5092904;28;20514;-49
2022/04/29 00:52:16;;;;;;;3.07;2.87;;;9.30;99.90;;;;;;5093058;28;20475;-48
2022/04/29 00:54:46;;;;;;;3.37;2.93;;;9.30;99.90;;;;;;5093338;28;20443;-46
2022/04/29 00:57:19;;;;;;;4.80;3.30;;;9.20;99.90;;;;;;5093611;28;20501;-46
2022/04/29 00:59:50;;;;;;;3.07;2.77;;;9.00;99.90;;;;;;5092729;28;20904;-48
2022/04/29 01:02:17;;;;;;;3.60;2.90;;;9.00;99.90;;;;;;5092095;28;20498;-48
2022/04/29 01:04:54;;;;;;;4.93;3.33;;;9.00;99.90;;;;;;5093046;28;20459;-46
2022/04/29 01:07:21;;;;;;;3.30;3.03;;;9.00;99.90;;;;;;5092926;28;20493;-46
2022/04/29 01:09:48;;;;;;;5.30;3.53;;;9.10;99.90;;;;;;5092744;28;20473;-46
2022/04/29 01:12:15;;;;;;;4.03;3.00;;;9.10;99.90;;;;;;5092981;28;20475;-49
2022/04/29 01:14:44;;;;;;;3.47;3.17;;;9.00;99.90;;;;;;5092699;28;20477;-46
2022/04/29 01:17:11;;;;;;;2.70;2.50;;;8.60;99.90;;;;;;5093117;28;21030;-45
2022/04/29 01:19:38;;;;;;;3.40;2.60;;;8.70;99.90;;;;;;5093151;28;20483;-45
2022/04/29 01:22:08;;;;;;;3.10;2.73;;;8.70;99.90;;;;;;5092638;28;20474;-46
2022/04/29 01:24:35;;;;;;;2.63;2.43;;;8.70;99.90;;;;;;5092313;28;20515;-46
2022/04/29 01:27:09;;;;;;;3.40;2.90;;;8.60;99.90;;;;;;5092771;28;20990;-50
2022/04/29 01:29:36;;;;;;;3.10;2.80;;;8.60;99.90;;;;;;5092251;28;20550;-45
2022/04/29 01:32:04;;;;;;;2.90;2.60;;;8.60;99.90;;;;;;5092997;28;20502;-45
2022/04/29 01:34:31;;;;;;;2.90;2.57;;;8.50;99.90;;;;;;5091707;28;20444;-46
2022/04/29 01:36:58;;;;;;;4.87;3.20;;;8.50;99.90;;;;;;5092677;28;20999;-45
2022/04/29 01:39:27;;;;;;;2.70;2.50;;;8.40;99.90;;;;;;5092359;28;20513;-47
2022/04/29 01:41:54;;;;;;;3.90;3.27;;;8.40;99.90;;;;;;5092559;28;21083;-45
2022/04/29 01:44:21;;;;;;;4.53;3.90;;;8.40;99.90;;;;;;5092219;28;20495;-45
2022/04/29 01:46:48;;;;;;;3.23;2.67;;;8.10;99.90;;;;;;5091915;28;20484;-48
2022/04/29 01:49:15;;;;;;;3.13;2.83;;;8.10;99.90;;;;;;5092119;28;20487;-45
2022/04/29 01:51:42;;;;;;;3.30;3.00;;;8.20;99.90;;;;;;5092063;28;20446;-46
2022/04/29 01:54:11;;;;;;;3.13;2.60;;;8.20;99.90;;;;;;5091922;28;20960;-46
2022/04/29 01:56:40;;;;;;;3.23;3.00;;;8.40;99.90;;;;;;5092275;28;20444;-45
2022/04/29 01:59:07;;;;;;;2.73;2.53;;;8.40;99.90;;;;;;5091566;28;20533;-45
2022/04/29 02:01:35;;;;;;;4.83;3.47;;;7.80;99.90;;;;;;5091548;28;20529;-45
2022/04/29 02:04:01;;;;;;;3.23;2.93;;;7.80;99.90;;;;;;5091749;28;20962;-45
2022/04/29 02:06:29;;;;;;;3.20;2.90;;;8.00;99.90;;;;;;5092036;28;20462;-45
2022/04/29 02:08:56;;;;;;;2.87;2.60;;;8.10;99.90;;;;;;5092172;28;20503;-45
2022/04/29 02:11:23;;;;;;;3.30;2.57;;;8.20;99.90;;;;;;5092373;28;20435;-45
2022/04/29 02:13:52;;;;;;;3.60;3.17;;;8.30;99.90;;;;;;5092027;28;20448;-46
2022/04/29 02:16:19;;;;;;;3.03;2.67;;;8.30;99.90;;;;;;5092705;28;20455;-45
2022/04/29 02:18:46;;;;;;;3.60;3.13;;;8.30;99.90;;;;;;5092260;28;20495;-46
2022/04/29 02:21:13;;;;;;;3.83;2.77;;;8.20;99.90;;;;;;5092306;28;20523;-45
2022/04/29 02:23:40;;;;;;;4.57;3.27;;;8.20;99.90;;;;;;5092123;28;20471;-47
2022/04/29 02:26:07;;;;;;;3.83;3.43;;;8.20;99.90;;;;;;5092060;28;20996;-45
2022/04/29 02:28:34;;;;;;;3.40;3.10;;;8.30;99.90;;;;;;5091913;28;20984;-47
2022/04/29 02:31:03;;;;;;;2.63;2.37;;;8.30;99.90;;;;;;5092674;28;20493;-47
2022/04/29 02:33:30;;;;;;;3.23;3.03;;;8.30;99.90;;;;;;5091984;28;20443;-45
2022/04/29 02:35:57;;;;;;;3.33;3.00;;;8.10;99.90;;;;;;5092115;28;20479;-45
2022/04/29 02:38:24;;;;;;;4.57;2.93;;;8.20;99.90;;;;;;5091906;28;20460;-45
2022/04/29 02:40:51;;;;;;;2.40;2.20;;;8.30;99.90;;;;;;5092023;28;20502;-49
2022/04/29 02:43:18;;;;;;;2.57;2.37;;;8.30;99.90;;;;;;5092094;28;20531;-45
2022/04/29 02:45:47;;;;;;;3.40;2.87;;;8.10;99.90;;;;;;5092877;28;20471;-49
2022/04/29 02:48:18;;;;;;;3.77;2.30;;;8.20;99.90;;;;;;5095936;28;20490;-48
2022/04/29 02:50:45;;;;;;;2.90;2.60;;;8.20;99.90;;;;;;5096154;28;20453;-45
2022/04/29 02:53:12;;;;;;;3.50;3.20;;;8.20;99.90;;;;;;5096000;28;20439;-48
2022/04/29 02:55:39;;;;;;;4.07;3.37;;;8.20;99.90;;;;;;5096364;28;20505;-45
2022/04/29 02:58:06;;;;;;;6.70;3.70;;;8.10;99.90;;;;;;5095604;28;20472;-48
2022/04/29 03:00:34;;;;;;;6.40;4.53;;;7.80;99.90;;;;;;5095360;28;20444;-45
2022/04/29 03:03:01;;;;;;;3.77;3.40;;;7.60;99.90;;;;;;5094942;28;20526;-46
2022/04/29 03:05:29;;;;;;;4.07;3.50;;;7.60;99.90;;;;;;5095867;28;20895;-45
2022/04/29 03:07:56;;;;;;;5.33;4.30;;;7.70;99.90;;;;;;5096598;28;20457;-46
2022/04/29 03:10:23;;;;;;;3.63;3.33;;;7.70;99.90;;;;;;5096605;28;20475;-48
2022/04/29 03:12:50;;;;;;;3.33;3.03;;;7.70;99.90;;;;;;5096223;28;20443;-46
2022/04/29 03:15:17;;;;;;;5.13;4.13;;;7.80;99.90;;;;;;5096160;28;20439;-45
2022/04/29 03:20:35;;;;;;;7.23;4.17;;;7.90;99.90;;;;;;5096708;28;20423;-49
2022/04/29 03:23:02;;;;;;;3.33;3.03;;;7.90;99.90;;;;;;5096923;28;20482;-48
2022/04/29 03:25:29;;;;;;;3.80;3.50;;;7.90;99.90;;;;;;5096860;28;20447;-45
2022/04/29 03:27:56;;;;;;;4.77;4.20;;;7.90;99.90;;;;;;5096716;28;20480;-45
2022/04/29 03:30:23;;;;;;;15.93;6.13;;;7.90;99.90;;;;;;5096931;28;20474;-46
2022/04/29 03:32:53;;;;;;;6.00;5.40;;;7.90;99.90;;;;;;5096096;28;20463;-45
2022/04/29 03:35:21;;;;;;;5.50;4.63;;;7.90;99.90;;;;;;5096449;28;20444;-48
2022/04/29 03:37:51;;;;;;;5.60;4.93;;;7.90;99.90;;;;;;5097171;28;20464;-46
2022/04/29 03:40:20;;;;;;;4.60;4.00;;;7.90;99.90;;;;;;5096574;28;20450;-44
2022/04/29 03:42:47;;;;;;;4.50;3.27;;;7.90;99.90;;;;;;5096899;28;20478;-45
2022/04/29 03:45:14;;;;;;;3.40;3.10;;;7.90;99.90;;;;;;5097100;28;20446;-48
2022/04/29 03:47:42;;;;;;;4.53;3.50;;;7.90;99.90;;;;;;5097080;28;20477;-49
2022/04/29 03:50:09;;;;;;;3.87;3.40;;;7.80;99.90;;;;;;5096590;28;20483;-45
2022/04/29 03:52:46;;;;;;;5.13;4.63;;;7.50;99.90;;;;;;5096223;28;20444;-45
2022/04/29 03:55:14;;;;;;;3.07;2.80;;;7.50;99.90;;;;;;5096499;28;20478;-45
2022/04/29 03:57:41;;;;;;;3.10;2.90;;;7.40;99.90;;;;;;5095015;28;20450;-46
2022/04/29 04:00:10;;;;;;;2.83;2.53;;;7.20;99.90;;;;;;5095552;28;20471;-46
2022/04/29 04:02:38;;;;;;;2.70;2.50;;;7.20;99.90;;;;;;5095017;28;20535;-46
2022/04/29 04:05:07;;;;;;;4.17;2.70;;;7.20;99.90;;;;;;5096473;28;20439;-52
2022/04/29 04:07:34;;;;;;;3.20;2.90;;;7.40;99.90;;;;;;5096551;28;20491;-47
2022/04/29 04:10:01;;;;;;;3.40;3.10;;;7.50;99.90;;;;;;5097485;28;20434;-49
2022/04/29 04:12:38;;;;;;;3.00;2.70;;;7.50;99.90;;;;;;5096249;28;20464;-46
2022/04/29 04:15:06;;;;;;;3.20;2.87;;;7.60;99.90;;;;;;5096814;28;20451;-57
2022/04/29 04:17:33;;;;;;;3.10;2.90;;;7.60;99.90;;;;;;5096872;28;20799;-46
2022/04/29 04:20:00;;;;;;;2.80;2.53;;;7.60;99.90;;;;;;5096182;28;20467;-47
2022/04/29 04:22:27;;;;;;;3.63;3.33;;;7.60;99.90;;;;;;5096025;28;20471;-46
2022/04/29 04:24:55;;;;;;;3.60;3.30;;;7.60;99.90;;;;;;5095772;28;20852;-46
2022/04/29 04:27:23;;;;;;;2.77;2.53;;;7.60;99.90;;;;;;5096594;28;20516;-49
2022/04/29 04:29:51;;;;;;;4.07;3.50;;;7.60;99.90;;;;;;5096350;28;20440;-45
2022/04/29 04:32:18;;;;;;;23.90;13.60;;;7.50;99.90;;;;;;5096004;28;20679;-46
2022/04/29 04:34:51;;;;;;;8.23;6.23;;;7.40;99.90;;;;;;5095584;28;20451;-47
2022/04/29 04:37:18;;;;;;;25.83;15.93;;;7.40;99.90;;;;;;5096030;28;20467;-45
2022/04/29 04:39:45;;;;;;;14.63;9.93;;;7.40;99.90;;;;;;5095782;28;20516;-45
2022/04/29 04:42:12;;;;;;;13.00;7.83;;;7.40;99.90;;;;;;5095358;28;20499;-45
2022/04/29 04:44:39;;;;;;;10.40;8.73;;;7.50;99.90;;;;;;5095612;28;20443;-50
2022/04/29 04:47:08;;;;;;;4.60;4.20;;;7.60;99.90;;;;;;5094730;28;20486;-46
2022/04/29 04:49:35;;;;;;;3.77;3.47;;;7.50;99.90;;;;;;5094647;28;20509;-49
2022/04/29 04:52:03;;;;;;;4.47;3.53;;;7.40;99.90;;;;;;5094232;28;20435;-46
2022/04/29 04:54:30;;;;;;;7.47;6.67;;;7.50;99.90;;;;;;5094077;28;20461;-47
2022/04/29 04:56:57;;;;;;;11.80;10.53;;;7.50;99.90;;;;;;5094061;28;20983;-45
2022/04/29 04:59:24;;;;;;;10.73;9.60;;;7.60;99.90;;;;;;5093511;28;20507;-46
2022/04/29 05:01:51;;;;;;;9.80;7.37;;;7.70;99.90;;;;;;5093601;28;20507;-46
2022/04/29 05:04:19;;;;;;;5.23;4.73;;;7.70;99.90;;;;;;5094764;28;20447;-46
2022/04/29 05:06:46;;;;;;;4.27;3.87;;;7.60;99.90;;;;;;5094412;28;20520;-46
2022/04/29 05:09:13;;;;;;;3.83;3.20;;;7.60;99.90;;;;;;5094284;28;20494;-45
2022/04/29 05:11:40;;;;;;;4.80;3.87;;;7.50;99.90;;;;;;5094195;28;20448;-44
2022/04/29 05:14:07;;;;;;;5.27;4.47;;;7.60;99.90;;;;;;5094905;28;20448;-45
2022/04/29 05:16:34;;;;;;;6.07;5.40;;;7.50;99.90;;;;;;5094515;28;20944;-45
2022/04/29 05:19:01;;;;;;;4.67;4.27;;;7.50;99.90;;;;;;5094166;28;20491;-48
2022/04/29 05:21:29;;;;;;;6.47;4.10;;;7.60;99.90;;;;;;5094584;28;20472;-45
2022/04/29 05:23:56;;;;;;;5.63;3.37;;;7.40;99.90;;;;;;5094418;28;20486;-46
2022/04/29 05:26:23;;;;;;;3.67;3.23;;;7.40;99.90;;;;;;5094615;28;20443;-45
2022/04/29 05:28:50;;;;;;;5.73;4.07;;;7.50;99.90;;;;;;5094715;28;20968;-45
2022/04/29 05:31:18;;;;;;;5.13;4.63;;;7.60;99.90;;;;;;5094919;28;20478;-45
2022/04/29 05:33:45;;;;;;;7.83;3.87;;;7.70;99.90;;;;;;5094255;28;20470;-46
2022/04/29 05:36:13;;;;;;;8.27;4.07;;;7.70;99.90;;;;;;5093550;28;20463;-46
2022/04/29 05:44:10;;;;;;;4.43;3.70;;;7.90;99.90;;;;;;5093207;28;20426;-45
2022/04/29 05:46:37;;;;;;;9.90;5.77;;;7.90;99.90;;;;;;5092986;28;20478;-45
2022/04/29 05:49:05;;;;;;;7.97;5.07;;;7.90;99.90;;;;;;5092491;28;20499;-46
2022/04/29 05:51:33;;;;;;;6.90;6.20;;;7.80;99.90;;;;;;5092332;28;20431;-47
2022/04/29 05:54:02;;;;;;;31.90;8.97;;;7.90;99.90;;;;;;5092076;28;20443;-46
2022/04/29 05:56:29;;;;;;;7.30;6.23;;;7.80;99.90;;;;;;5092233;28;20936;-46
2022/04/29 05:58:56;;;;;;;109.13;15.03;;;7.90;99.90;;;;;;5093747;28;20507;-49
2022/04/29 06:01:23;;;;;;;26.83;7.17;;;7.90;99.90;;;;;;5092567;28;20538;-46
2022/04/29 06:03:50;;;;;;;5.37;3.63;;;8.00;99.90;;;;;;5093100;28;20440;-49
2022/04/29 06:06:17;;;;;;;3.70;2.70;;;8.10;99.90;;;;;;5092460;28;20474;-46
2022/04/29 06:08:44;;;;;;;5.13;3.27;;;8.00;99.90;;;;;;5092488;28;20528;-46
2022/04/29 06:11:12;;;;;;;3.77;3.03;;;8.00;99.90;;;;;;5092352;28;20470;-47
2022/04/29 06:13:39;;;;;;;3.83;3.07;;;8.10;99.90;;;;;;5091646;28;20433;-46
2022/04/29 06:16:08;;;;;;;3.10;2.77;;;8.10;99.90;;;;;;5092380;28;20471;-47
2022/04/29 06:18:35;;;;;;;4.73;3.00;;;8.20;99.90;;;;;;5092134;28;20814;-46
2022/04/29 06:21:02;;;;;;;3.60;3.30;;;8.20;99.90;;;;;;5093602;28;20443;-46
2022/04/29 06:23:29;;;;;;;4.40;4.00;;;8.20;99.90;;;;;;5096164;28;20475;-46
2022/04/29 06:25:56;;;;;;;5.40;4.63;;;8.10;99.90;;;;;;5096099;28;20444;-46
2022/04/29 06:28:25;;;;;;;5.90;4.73;;;8.20;99.90;;;;;;5096357;28;20524;-49
2022/04/29 06:30:52;;;;;;;4.13;3.73;;;8.20;99.90;;;;;;5096108;28;20504;-47
2022/04/29 06:33:19;;;;;;;4.00;3.60;;;8.30;99.90;;;;;;5096108;28;20443;-45
2022/04/29 06:35:47;;;;;;;4.10;3.70;;;8.40;99.90;;;;;;5096276;28;20500;-44
2022/04/29 06:38:14;;;;;;;3.27;2.97;;;8.60;99.90;;;;;;5096513;28;20524;-45
2022/04/29 06:40:41;;;;;;;3.63;3.33;;;8.70;99.90;;;;;;5096169;28;20439;-44
2022/04/29 06:43:08;;;;;;;3.50;3.20;;;8.80;99.90;;;;;;5096495;28;20475;-46
2022/04/29 06:45:36;;;;;;;4.63;2.97;;;8.70;99.90;;;;;;5096501;28;20471;-45
2022/04/29 06:48:04;;;;;;;3.30;3.00;;;8.60;99.90;;;;;;5096005;28;20495;-44
2022/04/29 06:50:31;;;;;;;2.83;2.63;;;8.50;99.90;;;;;;5096461;28;20478;-47
2022/04/29 06:52:58;;;;;;;4.07;3.77;;;8.70;99.90;;;;;;5095462;28;20481;-44
2022/04/29 06:55:26;;;;;;;3.13;2.80;;;8.70;99.90;;;;;;5094809;28;20439;-45
2022/04/29 06:57:53;;;;;;;4.63;3.80;;;8.90;99.90;;;;;;5094639;28;20511;-44
2022/04/29 07:00:20;;;;;;;14.77;5.03;;;9.00;99.90;;;;;;5094597;28;20496;-46
2022/04/29 07:02:49;;;;;;;4.03;2.83;;;9.10;99.90;;;;;;5093701;28;20499;-46
2022/04/29 07:05:16;;;;;;;5.33;2.90;;;9.30;99.90;;;;;;5094236;28;20530;-44
2022/04/29 07:07:42;;;;;;;4.80;4.40;;;9.50;99.90;;;;;;5094559;28;20950;-45
2022/04/29 07:10:11;;;;;;;6.40;4.10;;;9.80;99.90;;;;;;5094478;28;20439;-46
2022/04/29 07:12:42;;;;;;;4.37;3.17;;;10.10;99.90;;;;;;5094010;28;20432;-45
2022/04/29 07:15:10;;;;;;;5.87;3.60;;;10.00;99.90;;;;;;5094188;28;20514;-44
2022/04/29 07:17:37;;;;;;;3.23;2.93;;;10.10;99.90;;;;;;5093918;28;20443;-44
2022/04/29 07:20:08;;;;;;;3.17;2.87;;;10.00;99.90;;;;;;5093888;28;20740;-44
2022/04/29 07:22:37;;;;;;;3.37;2.90;;;10.10;99.90;;;;;;5094683;28;20506;-44
2022/04/29 07:25:04;;;;;;;50.47;32.53;;;10.50;99.90;;;;;;5095401;28;20450;-45
2022/04/29 07:27:32;;;;;;;3.07;2.73;;;10.70;99.90;;;;;;5094705;28;20496;-46
2022/04/29 07:29:59;;;;;;;7.60;3.13;;;10.20;99.90;;;;;;5093652;28;20946;-44
2022/04/29 07:32:26;;;;;;;3.67;3.03;;;10.20;99.90;;;;;;5093302;28;20467;-45
2022/04/29 07:43:08;;;;;;;5.30;3.90;;;11.20;99.90;;;;;;5094661;28;20462;-45
2022/04/29 07:45:37;;;;;;;3.43;3.10;;;11.10;99.90;;;;;;5093922;28;20439;-44
2022/04/29 07:48:05;;;;;;;6.57;3.40;;;11.10;99.90;;;;;;5093505;28;20458;-45
2022/04/29 07:50:32;;;;;;;7.53;2.40;;;11.00;99.90;;;;;;5094029;28;20448;-44
2022/04/29 07:53:01;;;;;;;2.87;2.40;;;11.30;99.90;;;;;;5095362;28;20435;-45
2022/04/29 07:55:29;;;;;;;19.40;6.40;;;11.40;99.40;;;;;;5095390;28;20590;-44
2022/04/29 07:57:56;;;;;;;3.70;2.80;;;11.70;99.80;;;;;;5093397;28;20495;-45
2022/04/29 08:00:23;;;;;;;3.60;3.30;;;12.40;99.30;;;;;;5093620;28;21025;-45
2022/04/29 08:02:51;;;;;;;2.87;2.57;;;13.10;99.50;;;;;;5092904;28;20558;-45
2022/04/29 08:05:18;;;;;;;3.10;2.60;;;14.10;97.70;;;;;;5093085;28;20828;-45
2022/04/29 08:07:47;;;;;;;7.87;3.50;;;15.20;94.40;;;;;;5093381;28;20459;-44
2022/04/29 08:10:15;;;;;;;13.03;2.53;;;15.90;93.70;;;;;;5092716;28;20447;-46
2022/04/29 08:12:42;;;;;;;3.00;2.70;;;16.40;91.20;;;;;;5092804;28;20851;-45
2022/04/29 08:15:11;;;;;;;2.80;2.60;;;16.90;90.90;;;;;;5092775;28;20443;-45
2022/04/29 08:17:39;;;;;;;22.70;4.57;;;17.30;90.10;;;;;;5091646;28;20443;-42
2022/04/29 08:20:07;;;;;;;8.03;2.87;;;17.40;89.10;;;;;;5092438;28;20524;-46
2022/04/29 08:22:36;;;;;;;5.60;2.40;;;17.20;90.80;;;;;;5091202;28;20475;-45
2022/04/29 08:25:04;;;;;;;3.60;2.77;;;17.10;88.30;;;;;;5092680;28;20444;-46
2022/04/29 08:27:32;;;;;;;4.73;3.07;;;18.00;86.50;;;;;;5092227;28;20482;-45
2022/04/29 08:29:59;;;;;;;15.67;4.70;;;17.50;86.00;;;;;;5091518;28;20440;-50
2022/04/29 08:32:26;;;;;;;3.93;3.53;;;16.70;84.50;;;;;;5092421;28;20436;-46
2022/04/29 08:34:53;;;;;;;9.13;3.40;;;16.00;87.00;;;;;;5092240;28;20819;-45
2022/04/29 08:37:20;;;;;;;5.17;3.57;;;15.40;90.10;;;;;;5091901;28;20443;-45
2022/04/29 08:39:48;;;;;;;4.83;3.50;;;14.80;90.50;;;;;;5091445;28;20467;-46
2022/04/29 08:42:18;;;;;;;195.57;32.73;;;14.60;92.20;;;;;;5091340;28;20521;-46
2022/04/29 08:44:49;;;;;;;25.57;6.57;;;14.70;92.40;;;;;;5091623;28;20439;-44
2022/04/29 08:47:17;;;;;;;8.23;3.70;;;14.60;92.30;;;;;;5092224;28;20795;-46
2022/04/29 08:49:45;;;;;;;46.83;10.37;;;14.40;92.70;;;;;;5092083;28;20502;-45
2022/04/29 08:52:13;;;;;;;15.50;4.50;;;14.80;92.90;;;;;;5091890;28;20508;-46
2022/04/29 09:00:16;;;;;;;6.00;2.77;;;14.80;92.30;;;;;;5092104;28;20936;-45
2022/04/29 09:02:44;;;;;;;3.50;3.20;;;14.80;91.70;;;;;;5092040;28;20503;-47
2022/04/29 09:05:12;;;;;;;3.47;3.17;;;15.00;92.40;;;;;;5092072;28;20454;-45
2022/04/29 09:08:00;;;;;;;3.90;3.27;;;15.30;92.30;;;;;;5091748;28;20928;-45
2022/04/29 09:10:29;;;;;;;3.57;2.70;;;15.40;92.60;;;;;;5092053;28;20443;-45
2022/04/29 09:12:56;;;;;;;17.40;4.40;;;15.70;91.80;;;;;;5091618;28;20470;-48
2022/04/29 09:15:25;;;;;;;50.30;18.53;;;15.80;93.40;;;;;;5092174;28;20435;-45
2022/04/29 09:17:53;;;;;;;870.43;211.77;;;15.40;91.10;;;;;;5091622;28;20464;-44
2022/04/29 09:20:21;;;;;;;3.33;3.03;;;15.20;93.80;;;;;;5091955;28;20500;-44
2022/04/29 09:22:52;;;;;;;1999.90;999.90;;;15.30;92.40;;;;;;5091517;28;20525;-48
2022/04/29 09:25:19;;;;;;;58.53;16.43;;;15.30;91.20;;;;;;5091634;28;20454;-46
2022/04/29 09:27:58;;;;;;;4.63;3.60;;;15.50;91.70;;;;;;5091235;28;20459;-44
2022/04/29 09:30:38;;;;;;;3.93;2.77;;;15.80;91.80;;;;;;5091644;28;20928;-49
2022/04/29 09:33:07;;;;;;;5.50;3.37;;;15.80;91.20;;;;;;5091365;28;20517;-48
2022/04/29 09:35:40;;;;;;;9.30;5.00;;;15.90;93.90;;;;;;5091692;28;20501;-46
2022/04/29 09:40:53;;;;;;;9.40;3.50;;;15.90;93.20;;;;;;5091453;28;20497;-45
2022/04/29 09:43:33;;;;;;;29.67;6.23;;;16.00;90.90;;;;;;5091249;28;21027;-47
2022/04/29 09:46:16;;;;;;;3.60;3.30;;;16.10;91.80;;;;;;5091543;28;20454;-45
2022/04/29 09:48:53;;;;;;;4.40;4.00;;;16.10;93.70;;;;;;5091418;28;20991;-46
2022/04/29 09:51:42;;;;;;;6.90;3.43;;;16.00;91.00;;;;;;5091297;28;20439;-46
2022/04/29 09:54:11;;;;;;;3.17;2.87;;;16.00;91.70;;;;;;5091110;28;20938;-46
2022/04/29 09:56:39;;;;;;;5.83;3.20;;;16.30;90.50;;;;;;5090385;28;20447;-45
2022/04/29 09:59:07;;;;;;;6.47;3.70;;;16.30;92.00;;;;;;5090790;28;20498;-45
2022/04/29 10:01:36;;;;;;;3.90;3.13;;;16.00;90.00;;;;;;5091113;28;20861;-45
2022/04/29 10:04:04;;;;;;;3.80;3.10;;;16.30;89.10;;;;;;5090857;28;20566;-47
2022/04/29 10:06:34;;;;;;;3.20;2.90;;;16.50;92.20;;;;;;5091218;28;20447;-46
2022/04/29 10:09:01;;;;;;;4.57;2.53;;;16.40;88.50;;;;;;5090907;28;20984;-45
2022/04/29 10:11:29;;;;;;;2.27;2.00;;;16.60;87.80;;;;;;5091011;28;20530;-46
2022/04/29 10:14:02;;;;;;;2.53;2.10;;;16.60;83.80;;;;;;5090465;28;20479;-47
2022/04/29 10:16:33;;;;;;;3.43;2.23;;;16.50;79.40;;;;;;5091175;28;20443;-46
2022/04/29 10:21:50;;;;;;;7.07;2.37;;;16.20;80.80;;;;;;5090923;28;20989;-50
2022/04/29 10:24:17;;;;;;;7.17;2.83;;;16.20;82.00;;;;;;5090163;28;20579;-47
2022/04/29 10:26:45;;;;;;;8.20;2.90;;;16.30;80.80;;;;;;5090694;28;20440;-45
2022/04/29 10:29:12;;;;;;;4.53;1.93;;;16.60;79.80;;;;;;5090596;28;20512;-45
2022/04/29 10:31:39;;;;;;;3.00;2.40;;;16.70;80.10;;;;;;5089913;28;20444;-49
2022/04/29 10:34:29;;;;;;;3.40;2.20;;;16.90;78.90;;;;;;5089713;28;20435;-45
2022/04/29 10:36:57;;;;;;;6.53;2.03;;;17.20;75.60;;;;;;5090523;28;20435;-45
2022/04/29 10:39:24;;;;;;;3.13;2.13;;;17.10;79.40;;;;;;5090719;28;20521;-46
2022/04/29 10:42:02;;;;;;;2.30;2.10;;;17.10;75.60;;;;;;5089662;28;20463;-46
2022/04/29 10:44:30;;;;;;;3.30;2.13;;;17.10;77.10;;;;;;5090350;28;20467;-47
2022/04/29 10:47:20;;;;;;;2.10;1.63;;;17.20;80.80;;;;;;5090781;28;20439;-46
2022/04/29 10:49:48;;;;;;;2.13;1.93;;;17.30;75.00;;;;;;5090501;28;20513;-45
2022/04/29 10:52:26;;;;;;;2.33;2.13;;;17.30;77.20;;;;;;5090493;28;20484;-45
2022/04/29 10:54:57;;;;;;;2.33;1.87;;;17.50;78.40;;;;;;5090365;28;20559;-45
2022/04/29 10:57:38;;;;;;;5.50;3.03;;;17.60;76.80;;;;;;5090448;28;20530;-45
2022/04/29 11:00:11;;;;;;;5.60;2.50;;;17.70;81.30;;;;;;5090093;28;20439;-46
2022/04/29 11:02:38;;;;;;;4.03;2.57;;;17.80;76.90;;;;;;5090126;28;20526;-45
2022/04/29 11:05:08;;;;;;;2.90;2.00;;;18.00;77.30;;;;;;5090590;28;20514;-46
2022/04/29 11:07:42;;;;;;;2.60;2.40;;;18.00;77.40;;;;;;5092030;28;20450;-46
2022/04/29 11:10:14;;;;;;;2.10;1.87;;;18.10;80.60;;;;;;5094425;28;20443;-45
2022/04/29 11:12:43;;;;;;;2.30;2.03;;;18.20;72.40;;;;;;5093739;28;21005;-45
2022/04/29 11:15:12;;;;;;;4.30;2.10;;;18.20;64.10;;;;;;5094022;28;20435;-46
2022/04/29 11:17:40;;;;;;;10.40;2.53;;;18.30;71.40;;;;;;5093731;28;20933;-45
2022/04/29 11:20:17;;;;;;;3.30;2.57;;;18.40;70.80;;;;;;5093709;28;20439;-46
2022/04/29 11:25:50;;;;;;;1.83;1.60;;;18.20;62.00;;;;;;5094183;28;20419;-45
2022/04/29 11:28:17;;;;;;;3.37;1.70;;;18.30;62.20;;;;;;5094134;28;20526;-45
2022/04/29 11:30:44;;;;;;;4.83;2.23;;;18.40;64.40;;;;;;5094042;28;20435;-45
2022/04/29 11:33:11;;;;;;;2.03;1.50;;;18.70;71.50;;;;;;5093704;28;20489;-45
2022/04/29 11:35:40;;;;;;;33.10;5.50;;;18.90;65.10;;;;;;5093740;28;20514;-45
2022/04/29 11:38:10;;;;;;;11.43;2.60;;;19.00;63.90;;;;;;5093679;28;20459;-46
2022/04/29 11:40:40;;;;;;;5.73;1.87;;;19.20;58.40;;;;;;5093647;28;20962;-46
2022/04/29 11:43:11;;;;;;;6.87;1.63;;;19.20;55.40;;;;;;5093622;28;20880;-48
2022/04/29 11:45:40;;;;;;;17.80;2.87;;;19.50;57.50;;;;;;5093496;28;20443;-47
2022/04/29 11:48:09;;;;;;;19.37;5.30;;;19.30;49.50;;;;;;5093537;28;20463;-45
2022/04/29 11:50:37;;;;;;;11.30;2.77;;;19.40;51.00;;;;;;5093619;28;20493;-46
2022/04/29 11:53:12;;;;;;;12.43;2.83;;;19.50;51.70;;;;;;5093243;28;20562;-46
2022/04/29 11:55:39;;;;;;;134.80;20.83;;;19.40;47.70;;;;;;5093406;28;20818;-46
2022/04/29 11:58:06;;;;;;;9.47;2.03;;;19.50;51.10;;;;;;5094478;28;20512;-45
2022/04/29 12:00:35;;;;;;;8.90;2.60;;;19.40;53.60;;;;;;5093362;28;20944;-45
2022/04/29 12:03:04;;;;;;;3.37;1.87;;;19.40;52.90;;;;;;5093003;28;20806;-45
2022/04/29 12:05:31;;;;;;;2.73;1.60;;;19.50;53.90;;;;;;5093187;28;21014;-46
2022/04/29 12:08:02;;;;;;;25.23;3.20;;;19.50;52.00;;;;;;5093331;28;20498;-45
2022/04/29 12:10:32;;;;;;;2.10;1.30;;;19.70;44.70;;;;;;5093097;28;20525;-48
2022/04/29 12:13:00;;;;;;;5.90;1.83;;;19.50;45.80;;;;;;5092944;28;20875;-44
2022/04/29 12:15:30;;;;;;;203.03;24.73;;;19.70;42.40;;;;;;5093256;28;20530;-45
2022/04/29 12:17:59;;;;;;;4.63;1.60;;;19.70;43.90;;;;;;5092526;28;20467;-44
2022/04/29 12:20:27;;;;;;;22.43;2.23;;;19.70;42.30;;;;;;5093118;28;20446;-45
2022/04/29 12:22:55;;;;;;;46.20;6.40;;;19.80;43.40;;;;;;5092918;28;20492;-50
2022/04/29 12:25:24;;;;;;;10.70;2.60;;;20.00;43.00;;;;;;5092805;28;20529;-45
2022/04/29 12:28:09;;;;;;;50.45;6.63;;;19.90;42.80;;;;;;5091522;28;20433;-44
2022/04/29 12:36:08;;;;;;;3.40;1.70;;;19.80;48.70;;;;;;5092728;28;20923;-48
2022/04/29 12:38:35;;;;;;;6.77;1.70;;;19.90;49.20;;;;;;5092703;28;20971;-45
2022/04/29 12:41:25;;;;;;;17.27;2.90;;;19.90;48.90;;;;;;5092720;28;20436;-45
2022/04/29 12:43:54;;;;;;;42.63;5.40;;;20.00;53.30;;;;;;5092331;28;20503;-45
2022/04/29 12:46:22;;;;;;;46.87;5.37;;;19.90;52.10;;;;;;5092277;28;20470;-48
2022/04/29 12:48:51;;;;;;;6.37;2.37;;;19.80;50.70;;;;;;5092451;28;20880;-48
2022/04/29 12:51:31;;;;;;;11.77;4.07;;;19.90;51.90;;;;;;5092246;28;20447;-47
2022/04/29 12:53:58;;;;;;;12.40;3.00;;;19.80;53.00;;;;;;5092197;28;20817;-50
2022/04/29 12:56:27;;;;;;;5.80;2.20;;;19.90;51.80;;;;;;5092275;28;20570;-46
2022/04/29 12:58:55;;;;;;;3.57;1.77;;;19.90;52.00;;;;;;5092008;28;20524;-45
2022/04/29 13:01:22;;;;;;;22.33;4.93;;;19.90;55.00;;;;;;5092077;28;20482;-48
2022/04/29 13:03:51;;;;;;;5.30;3.13;;;20.00;53.00;;;;;;5091745;28;20604;-48
2022/04/29 13:06:21;;;;;;;10.60;2.40;;;20.00;52.20;;;;;;5091993;28;20505;-45
2022/04/29 13:08:53;;;;;;;4.73;2.07;;;19.90;53.20;;;;;;5091981;28;20562;-45
2022/04/29 13:11:20;;;;;;;1.90;1.70;;;20.00;52.60;;;;;;5092107;28;20443;-45
2022/04/29 13:13:48;;;;;;;6.33;1.87;;;20.00;57.10;;;;;;5091702;28;20447;-46
2022/04/29 13:16:16;;;;;;;3.97;2.77;;;19.90;54.60;;;;;;5092073;28;20478;-45
2022/04/29 13:18:43;;;;;;;4.13;2.23;;;19.70;54.90;;;;;;5091988;28;20456;-45
2022/04/29 13:21:10;;;;;;;8.60;2.90;;;19.50;56.00;;;;;;5091487;28;20508;-45
2022/04/29 13:23:39;;;;;;;3.90;2.00;;;19.40;53.80;;;;;;5091549;28;20797;-45
2022/04/29 13:26:06;;;;;;;5.83;1.77;;;19.30;55.80;;;;;;5091371;28;20952;-45
2022/04/29 13:28:33;;;;;;;104.77;12.57;;;19.10;55.20;;;;;;5091632;28;20460;-45
2022/04/29 13:31:01;;;;;;;20.23;3.83;;;19.10;53.10;;;;;;5091629;28;20478;-47
2022/04/29 13:33:29;;;;;;;2.97;2.30;;;19.00;52.40;;;;;;5091022;28;20518;-43